Airfield :
LOGIN :

Register | Disclaimer

   EN    FR    IT 

 










Legend :    VFR   Marginal VFR   IFR   Intensive IFR   Very Intensive IFR
Visi :
Ceiling :
>= 8 km
>= 3000ft
5 to 8 km
1000 to 3000 ft
1500m to 5 km
500 to 1000 ft
800 to 1500m
200 to 500 ft
< 800m
< 200 ft
Symbols :   Thunderstorms  Fog  Heavy snow  Heavy precipitations  Wind > 20 kt
SIGMETs :     Misc.  Thunderstorms  Icing  Turbulence  Mountain Waves  Volcanic Ashes






- Airport Elevation : 584 ft


LFPV - Villacoublay Vélizy

CURRENT METAR :
  • 270830Z AUTO 18015KT 2900 -RADZ BR OVC004/// 05/04 Q0993 BECMG 27020G45KT 9999 NSW BKN015

EXPIRED METARs :
  • 270800Z AUTO 17014KT 140V210 2700 -RA BR OVC004/// 04/04 Q0995 BECMG 18015G30KT 3000 RASN BKN007
  • 270730Z AUTO 17015KT 140V200 2200 -RA BR OVC005/// 03/03 Q0995 BECMG 18015G30KT 3000 RASN
  • 270700Z AUTO 17017KT 6000 -RA OVC006/// 03/02 Q0996 TEMPO BKN002 BECMG 18015G30KT 3000 RASN
  • 270630Z AUTO 17015KT 140V200 5000 RA BR OVC007/// 03/03 Q0999 TEMPO BKN002 BECMG 18015G30KT RASN
  • 270600Z AUTO 17014KT 7000 -RA OVC007/// 03/03 Q1000 TEMPO BKN002 BECMG 18015G30KT 3000 RASN

TAF TAF LFPV
Valid from the 27 at 09:00 until the 28 at 09:00 UTC


270800Z 2709/2809 17015G25KT 2700 -RA BR OVC004
BECMG 2710/2711 27020G45KT 9999 NSW BKN015
BECMG 2713/2715 32015G30KT
BECMG 2718/2719 27005KT CAVOK



MET'MAP, your aeronautical weather chart ! - Copyright ORBIFLY December 2007 - Disclaimer

ORBIFLY MET'MAP TEAM :

Programming & Development : Alexandra Zaïnal
Concept & original design : Baudouin d'Aumeries
Assistance for programming : Marc-Olivier Méhu
Technical & hardware support : Manuel Goepfert

Contact : metmap@orbifly.com




SOURCES & CREDITS :

   NOAA